sensor_id;sensor_type;location;lat;lon;timestamp;P1;durP1;ratioP1;P2;durP2;ratioP2
34896;SDS011;43407;51.828;-2.298;2023-03-01T00:01:12;1.70;;;0.90;;
34896;SDS011;43407;51.828;-2.298;2023-03-01T00:03:39;0.98;;;0.85;;
34896;SDS011;43407;51.828;-2.298;2023-03-01T00:06:05;1.30;;;0.90;;
34896;SDS011;43407;51.828;-2.298;2023-03-01T00:08:31;1.98;;;0.80;;
34896;SDS011;43407;51.828;-2.298;2023-03-01T00:13:26;2.55;;;0.90;;
34896;SDS011;43407;51.828;-2.298;2023-03-01T00:15:52;1.80;;;0.75;;
34896;SDS011;43407;51.828;-2.298;2023-03-01T00:18:17;0.60;;;0.60;;
34896;SDS011;43407;51.828;-2.298;2023-03-01T00:20:48;1.80;;;0.80;;
34896;SDS011;43407;51.828;-2.298;2023-03-01T00:23:23;1.20;;;0.80;;
34896;SDS011;43407;51.828;-2.298;2023-03-01T00:25:49;0.82;;;0.60;;
34896;SDS011;43407;51.828;-2.298;2023-03-01T00:28:14;0.60;;;0.60;;
34896;SDS011;43407;51.828;-2.298;2023-03-01T00:30:40;0.95;;;0.85;;
34896;SDS011;43407;51.828;-2.298;2023-03-01T00:33:06;1.48;;;0.60;;
34896;SDS011;43407;51.828;-2.298;2023-03-01T00:35:32;0.70;;;0.70;;
34896;SDS011;43407;51.828;-2.298;2023-03-01T00:37:58;1.02;;;0.70;;
34896;SDS011;43407;51.828;-2.298;2023-03-01T00:40:24;0.80;;;0.80;;
34896;SDS011;43407;51.828;-2.298;2023-03-01T00:42:50;1.10;;;0.70;;
34896;SDS011;43407;51.828;-2.298;2023-03-01T00:45:15;1.35;;;0.85;;
34896;SDS011;43407;51.828;-2.298;2023-03-01T00:47:41;1.80;;;0.90;;
34896;SDS011;43407;51.828;-2.298;2023-03-01T00:50:07;1.23;;;0.70;;
34896;SDS011;43407;51.828;-2.298;2023-03-01T00:52:34;0.77;;;0.77;;
34896;SDS011;43407;51.828;-2.298;2023-03-01T00:54:59;1.00;;;0.85;;
34896;SDS011;43407;51.828;-2.298;2023-03-01T00:57:25;1.73;;;0.75;;
34896;SDS011;43407;51.828;-2.298;2023-03-01T00:59:51;0.80;;;0.80;;
34896;SDS011;43407;51.828;-2.298;2023-03-01T01:02:19;1.48;;;0.82;;
34896;SDS011;43407;51.828;-2.298;2023-03-01T01:04:45;1.42;;;0.80;;
34896;SDS011;43407;51.828;-2.298;2023-03-01T01:07:12;1.13;;;0.88;;
34896;SDS011;43407;51.828;-2.298;2023-03-01T01:09:37;1.10;;;0.90;;
34896;SDS011;43407;51.828;-2.298;2023-03-01T01:12:03;1.83;;;1.00;;
34896;SDS011;43407;51.828;-2.298;2023-03-01T01:14:29;0.60;;;0.50;;
34896;SDS011;43407;51.828;-2.298;2023-03-01T01:16:55;1.13;;;0.88;;
34896;SDS011;43407;51.828;-2.298;2023-03-01T01:19:21;1.13;;;0.70;;
34896;SDS011;43407;51.828;-2.298;2023-03-01T01:21:46;1.67;;;0.82;;
34896;SDS011;43407;51.828;-2.298;2023-03-01T01:24:13;1.58;;;1.10;;
34896;SDS011;43407;51.828;-2.298;2023-03-01T01:26:39;1.95;;;1.00;;
34896;SDS011;43407;51.828;-2.298;2023-03-01T01:29:05;1.50;;;1.23;;
34896;SDS011;43407;51.828;-2.298;2023-03-01T01:31:32;1.42;;;1.10;;
34896;SDS011;43407;51.828;-2.298;2023-03-01T01:33:59;2.25;;;1.00;;
34896;SDS011;43407;51.828;-2.298;2023-03-01T01:36:26;1.75;;;1.05;;
34896;SDS011;43407;51.828;-2.298;2023-03-01T01:38:51;1.30;;;1.20;;
34896;SDS011;43407;51.828;-2.298;2023-03-01T01:41:17;3.05;;;0.90;;
34896;SDS011;43407;51.828;-2.298;2023-03-01T01:43:47;1.00;;;0.80;;
34896;SDS011;43407;51.828;-2.298;2023-03-01T01:51:44;0.93;;;0.90;;
34896;SDS011;43407;51.828;-2.298;2023-03-01T01:54:23;1.23;;;0.90;;
34896;SDS011;43407;51.828;-2.298;2023-03-01T01:56:52;0.85;;;0.85;;
34896;SDS011;43407;51.828;-2.298;2023-03-01T01:59:21;0.80;;;0.80;;
34896;SDS011;43407;51.828;-2.298;2023-03-01T02:01:49;1.40;;;0.88;;
34896;SDS011;43407;51.828;-2.298;2023-03-01T02:04:16;1.63;;;0.90;;
34896;SDS011;43407;51.828;-2.298;2023-03-01T02:06:45;0.90;;;0.90;;
34896;SDS011;43407;51.828;-2.298;2023-03-01T02:11:41;0.80;;;0.80;;
34896;SDS011;43407;51.828;-2.298;2023-03-01T02:14:08;1.42;;;1.00;;
34896;SDS011;43407;51.828;-2.298;2023-03-01T02:16:33;1.35;;;1.00;;
34896;SDS011;43407;51.828;-2.298;2023-03-01T02:18:59;0.80;;;0.80;;
34896;SDS011;43407;51.828;-2.298;2023-03-01T02:24:08;1.70;;;1.20;;
34896;SDS011;43407;51.828;-2.298;2023-03-01T02:26:40;1.20;;;1.10;;
34896;SDS011;43407;51.828;-2.298;2023-03-01T02:29:09;2.03;;;1.30;;
34896;SDS011;43407;51.828;-2.298;2023-03-01T02:31:35;2.15;;;1.15;;
34896;SDS011;43407;51.828;-2.298;2023-03-01T02:34:07;3.10;;;1.27;;
34896;SDS011;43407;51.828;-2.298;2023-03-01T02:36:39;1.60;;;1.10;;
34896;SDS011;43407;51.828;-2.298;2023-03-01T02:39:06;1.00;;;1.00;;
34896;SDS011;43407;51.828;-2.298;2023-03-01T02:41:39;1.20;;;1.13;;
34896;SDS011;43407;51.828;-2.298;2023-03-01T02:44:06;1.00;;;1.00;;
34896;SDS011;43407;51.828;-2.298;2023-03-01T02:46:32;2.85;;;1.30;;
34896;SDS011;43407;51.828;-2.298;2023-03-01T02:48:58;2.22;;;1.50;;
34896;SDS011;43407;51.828;-2.298;2023-03-01T02:54:07;1.45;;;1.23;;
34896;SDS011;43407;51.828;-2.298;2023-03-01T02:56:33;1.20;;;1.10;;
34896;SDS011;43407;51.828;-2.298;2023-03-01T02:58:59;1.95;;;1.42;;
34896;SDS011;43407;51.828;-2.298;2023-03-01T03:01:25;2.05;;;1.67;;
34896;SDS011;43407;51.828;-2.298;2023-03-01T03:04:10;2.05;;;1.40;;
34896;SDS011;43407;51.828;-2.298;2023-03-01T03:06:42;1.40;;;1.30;;
34896;SDS011;43407;51.828;-2.298;2023-03-01T03:09:08;1.55;;;1.45;;
34896;SDS011;43407;51.828;-2.298;2023-03-01T03:11:33;1.77;;;1.67;;
34896;SDS011;43407;51.828;-2.298;2023-03-01T03:13:59;2.50;;;1.80;;
34896;SDS011;43407;51.828;-2.298;2023-03-01T03:16:25;2.35;;;1.50;;
34896;SDS011;43407;51.828;-2.298;2023-03-01T03:18:50;3.63;;;1.45;;
34896;SDS011;43407;51.828;-2.298;2023-03-01T03:21:16;2.13;;;1.58;;
34896;SDS011;43407;51.828;-2.298;2023-03-01T03:23:42;1.52;;;1.35;;
34896;SDS011;43407;51.828;-2.298;2023-03-01T03:26:08;2.15;;;1.55;;
34896;SDS011;43407;51.828;-2.298;2023-03-01T03:28:34;1.73;;;1.60;;
34896;SDS011;43407;51.828;-2.298;2023-03-01T03:31:00;1.73;;;1.63;;
34896;SDS011;43407;51.828;-2.298;2023-03-01T03:33:29;2.08;;;1.63;;
34896;SDS011;43407;51.828;-2.298;2023-03-01T03:35:55;1.58;;;1.48;;
34896;SDS011;43407;51.828;-2.298;2023-03-01T03:38:21;2.08;;;1.38;;
34896;SDS011;43407;51.828;-2.298;2023-03-01T03:40:48;2.28;;;1.70;;
34896;SDS011;43407;51.828;-2.298;2023-03-01T03:43:16;1.80;;;1.70;;
34896;SDS011;43407;51.828;-2.298;2023-03-01T03:45:46;1.48;;;1.38;;
34896;SDS011;43407;51.828;-2.298;2023-03-01T03:48:13;2.25;;;1.60;;
34896;SDS011;43407;51.828;-2.298;2023-03-01T03:50:39;1.70;;;1.60;;
34896;SDS011;43407;51.828;-2.298;2023-03-01T03:53:11;2.30;;;1.90;;
34896;SDS011;43407;51.828;-2.298;2023-03-01T03:55:37;1.60;;;1.50;;
34896;SDS011;43407;51.828;-2.298;2023-03-01T03:58:05;3.72;;;1.80;;
34896;SDS011;43407;51.828;-2.298;2023-03-01T04:00:36;1.70;;;1.58;;
34896;SDS011;43407;51.828;-2.298;2023-03-01T04:03:03;3.83;;;1.67;;
34896;SDS011;43407;51.828;-2.298;2023-03-01T04:05:29;2.20;;;1.40;;
34896;SDS011;43407;51.828;-2.298;2023-03-01T04:07:55;1.83;;;1.30;;
34896;SDS011;43407;51.828;-2.298;2023-03-01T04:10:29;1.88;;;1.52;;
34896;SDS011;43407;51.828;-2.298;2023-03-01T04:12:56;1.58;;;1.35;;
34896;SDS011;43407;51.828;-2.298;2023-03-01T04:15:22;1.77;;;1.50;;
34896;SDS011;43407;51.828;-2.298;2023-03-01T04:17:49;2.97;;;1.70;;
34896;SDS011;43407;51.828;-2.298;2023-03-01T04:20:17;1.52;;;1.42;;
34896;SDS011;43407;51.828;-2.298;2023-03-01T04:22:52;2.65;;;1.40;;
34896;SDS011;43407;51.828;-2.298;2023-03-01T04:25:22;1.58;;;1.48;;
34896;SDS011;43407;51.828;-2.298;2023-03-01T04:27:47;3.35;;;2.08;;
34896;SDS011;43407;51.828;-2.298;2023-03-01T04:30:13;1.50;;;1.40;;
34896;SDS011;43407;51.828;-2.298;2023-03-01T04:32:39;2.28;;;1.95;;
34896;SDS011;43407;51.828;-2.298;2023-03-01T04:35:05;2.28;;;1.83;;
34896;SDS011;43407;51.828;-2.298;2023-03-01T04:37:30;2.28;;;1.88;;
34896;SDS011;43407;51.828;-2.298;2023-03-01T04:39:56;2.45;;;1.63;;
34896;SDS011;43407;51.828;-2.298;2023-03-01T04:42:22;2.13;;;1.95;;
34896;SDS011;43407;51.828;-2.298;2023-03-01T04:44:48;2.35;;;2.10;;
34896;SDS011;43407;51.828;-2.298;2023-03-01T04:47:16;2.45;;;1.80;;
34896;SDS011;43407;51.828;-2.298;2023-03-01T04:49:41;3.58;;;2.33;;
34896;SDS011;43407;51.828;-2.298;2023-03-01T04:52:07;3.15;;;2.30;;
34896;SDS011;43407;51.828;-2.298;2023-03-01T04:54:34;2.42;;;2.22;;
34896;SDS011;43407;51.828;-2.298;2023-03-01T04:57:00;4.28;;;2.33;;
34896;SDS011;43407;51.828;-2.298;2023-03-01T04:59:27;2.60;;;2.40;;
34896;SDS011;43407;51.828;-2.298;2023-03-01T05:01:53;3.30;;;2.13;;
34896;SDS011;43407;51.828;-2.298;2023-03-01T05:04:23;3.42;;;2.30;;
34896;SDS011;43407;51.828;-2.298;2023-03-01T05:06:49;2.45;;;1.95;;
34896;SDS011;43407;51.828;-2.298;2023-03-01T05:09:14;2.55;;;2.00;;
34896;SDS011;43407;51.828;-2.298;2023-03-01T05:11:40;4.00;;;2.20;;
34896;SDS011;43407;51.828;-2.298;2023-03-01T05:14:06;3.55;;;1.75;;
34896;SDS011;43407;51.828;-2.298;2023-03-01T05:16:32;3.72;;;2.00;;
34896;SDS011;43407;51.828;-2.298;2023-03-01T05:18:58;4.55;;;2.00;;
34896;SDS011;43407;51.828;-2.298;2023-03-01T05:21:25;5.20;;;2.13;;
34896;SDS011;43407;51.828;-2.298;2023-03-01T05:23:50;2.42;;;1.85;;
34896;SDS011;43407;51.828;-2.298;2023-03-01T05:26:17;5.65;;;2.28;;
34896;SDS011;43407;51.828;-2.298;2023-03-01T05:28:44;3.72;;;2.22;;
34896;SDS011;43407;51.828;-2.298;2023-03-01T05:31:09;4.88;;;2.10;;
34896;SDS011;43407;51.828;-2.298;2023-03-01T05:33:39;4.13;;;2.33;;
34896;SDS011;43407;51.828;-2.298;2023-03-01T05:36:06;3.08;;;2.33;;
34896;SDS011;43407;51.828;-2.298;2023-03-01T05:38:33;4.35;;;2.20;;
34896;SDS011;43407;51.828;-2.298;2023-03-01T05:40:59;5.63;;;2.80;;
34896;SDS011;43407;51.828;-2.298;2023-03-01T05:43:25;5.40;;;2.50;;
34896;SDS011;43407;51.828;-2.298;2023-03-01T05:45:50;4.10;;;2.85;;
34896;SDS011;43407;51.828;-2.298;2023-03-01T05:48:16;5.20;;;2.90;;
34896;SDS011;43407;51.828;-2.298;2023-03-01T05:50:42;6.43;;;2.42;;
34896;SDS011;43407;51.828;-2.298;2023-03-01T05:53:10;5.50;;;2.60;;
34896;SDS011;43407;51.828;-2.298;2023-03-01T05:55:37;10.07;;;2.72;;
34896;SDS011;43407;51.828;-2.298;2023-03-01T05:58:04;4.97;;;2.80;;
34896;SDS011;43407;51.828;-2.298;2023-03-01T06:00:32;6.60;;;2.53;;
34896;SDS011;43407;51.828;-2.298;2023-03-01T06:02:58;16.83;;;2.60;;
34896;SDS011;43407;51.828;-2.298;2023-03-01T06:05:24;5.05;;;2.63;;
34896;SDS011;43407;51.828;-2.298;2023-03-01T06:07:51;10.57;;;2.55;;
34896;SDS011;43407;51.828;-2.298;2023-03-01T06:10:18;8.27;;;2.45;;
34896;SDS011;43407;51.828;-2.298;2023-03-01T06:12:44;4.30;;;2.33;;
34896;SDS011;43407;51.828;-2.298;2023-03-01T06:15:11;4.35;;;2.25;;
34896;SDS011;43407;51.828;-2.298;2023-03-01T06:17:39;4.97;;;2.50;;
34896;SDS011;43407;51.828;-2.298;2023-03-01T06:22:35;4.93;;;2.45;;
34896;SDS011;43407;51.828;-2.298;2023-03-01T06:25:00;4.50;;;1.92;;
34896;SDS011;43407;51.828;-2.298;2023-03-01T06:27:26;3.90;;;2.10;;
34896;SDS011;43407;51.828;-2.298;2023-03-01T06:29:52;3.97;;;2.47;;
34896;SDS011;43407;51.828;-2.298;2023-03-01T06:32:17;2.67;;;2.42;;
34896;SDS011;43407;51.828;-2.298;2023-03-01T06:34:43;9.55;;;3.03;;
34896;SDS011;43407;51.828;-2.298;2023-03-01T06:37:09;2.45;;;2.25;;
34896;SDS011;43407;51.828;-2.298;2023-03-01T06:39:34;7.28;;;3.00;;
34896;SDS011;43407;51.828;-2.298;2023-03-01T06:42:00;4.70;;;2.92;;
34896;SDS011;43407;51.828;-2.298;2023-03-01T06:44:26;7.15;;;3.55;;
34896;SDS011;43407;51.828;-2.298;2023-03-01T06:46:51;4.38;;;3.00;;
34896;SDS011;43407;51.828;-2.298;2023-03-01T06:49:17;5.38;;;3.08;;
34896;SDS011;43407;51.828;-2.298;2023-03-01T06:51:43;12.77;;;3.10;;
34896;SDS011;43407;51.828;-2.298;2023-03-01T06:54:09;5.10;;;3.30;;
34896;SDS011;43407;51.828;-2.298;2023-03-01T06:56:35;18.80;;;3.90;;
34896;SDS011;43407;51.828;-2.298;2023-03-01T06:59:01;32.33;;;3.80;;
34896;SDS011;43407;51.828;-2.298;2023-03-01T07:01:28;5.72;;;4.00;;
34896;SDS011;43407;51.828;-2.298;2023-03-01T07:03:54;7.03;;;3.33;;
34896;SDS011;43407;51.828;-2.298;2023-03-01T07:06:20;5.43;;;2.97;;
34896;SDS011;43407;51.828;-2.298;2023-03-01T07:08:46;4.40;;;3.00;;
34896;SDS011;43407;51.828;-2.298;2023-03-01T07:11:12;8.63;;;3.30;;
34896;SDS011;43407;51.828;-2.298;2023-03-01T07:13:37;7.43;;;3.03;;
34896;SDS011;43407;51.828;-2.298;2023-03-01T07:16:03;5.88;;;3.80;;
34896;SDS011;43407;51.828;-2.298;2023-03-01T07:18:29;4.68;;;3.50;;
34896;SDS011;43407;51.828;-2.298;2023-03-01T07:20:54;23.98;;;3.70;;
34896;SDS011;43407;51.828;-2.298;2023-03-01T07:23:20;17.02;;;4.50;;
34896;SDS011;43407;51.828;-2.298;2023-03-01T07:25:51;18.50;;;4.07;;
34896;SDS011;43407;51.828;-2.298;2023-03-01T07:28:18;41.40;;;4.63;;
34896;SDS011;43407;51.828;-2.298;2023-03-01T07:30:43;4.53;;;4.00;;
34896;SDS011;43407;51.828;-2.298;2023-03-01T07:33:09;4.43;;;3.60;;
34896;SDS011;43407;51.828;-2.298;2023-03-01T07:35:35;33.50;;;4.70;;
34896;SDS011;43407;51.828;-2.298;2023-03-01T07:38:00;19.60;;;4.50;;
34896;SDS011;43407;51.828;-2.298;2023-03-01T07:40:26;11.27;;;4.15;;
34896;SDS011;43407;51.828;-2.298;2023-03-01T07:43:00;25.20;;;4.72;;
34896;SDS011;43407;51.828;-2.298;2023-03-01T07:45:26;5.60;;;4.43;;
34896;SDS011;43407;51.828;-2.298;2023-03-01T07:47:52;12.25;;;4.68;;
34896;SDS011;43407;51.828;-2.298;2023-03-01T07:50:18;77.45;;;6.80;;
34896;SDS011;43407;51.828;-2.298;2023-03-01T07:52:44;23.52;;;5.03;;
34896;SDS011;43407;51.828;-2.298;2023-03-01T07:55:11;23.60;;;4.55;;
34896;SDS011;43407;51.828;-2.298;2023-03-01T07:57:36;15.57;;;4.25;;
34896;SDS011;43407;51.828;-2.298;2023-03-01T08:00:02;4.50;;;3.80;;
34896;SDS011;43407;51.828;-2.298;2023-03-01T08:02:28;24.90;;;4.75;;
34896;SDS011;43407;51.828;-2.298;2023-03-01T08:04:53;8.45;;;3.63;;
34896;SDS011;43407;51.828;-2.298;2023-03-01T08:07:19;11.10;;;4.00;;
34896;SDS011;43407;51.828;-2.298;2023-03-01T08:09:44;4.53;;;3.20;;
34896;SDS011;43407;51.828;-2.298;2023-03-01T08:12:10;4.28;;;3.35;;
34896;SDS011;43407;51.828;-2.298;2023-03-01T08:14:35;11.45;;;4.07;;
34896;SDS011;43407;51.828;-2.298;2023-03-01T08:17:01;9.82;;;3.25;;
34896;SDS011;43407;51.828;-2.298;2023-03-01T08:19:28;6.90;;;3.97;;
34896;SDS011;43407;51.828;-2.298;2023-03-01T08:21:54;7.15;;;3.85;;
34896;SDS011;43407;51.828;-2.298;2023-03-01T08:24:19;14.45;;;5.10;;
34896;SDS011;43407;51.828;-2.298;2023-03-01T08:26:45;7.60;;;5.45;;
34896;SDS011;43407;51.828;-2.298;2023-03-01T08:29:10;9.95;;;6.43;;
34896;SDS011;43407;51.828;-2.298;2023-03-01T08:31:36;8.05;;;6.63;;
34896;SDS011;43407;51.828;-2.298;2023-03-01T08:34:05;6.78;;;6.13;;
34896;SDS011;43407;51.828;-2.298;2023-03-01T08:36:36;9.43;;;6.65;;
34896;SDS011;43407;51.828;-2.298;2023-03-01T08:39:06;9.82;;;6.50;;
34896;SDS011;43407;51.828;-2.298;2023-03-01T08:41:32;6.68;;;5.78;;
34896;SDS011;43407;51.828;-2.298;2023-03-01T08:43:58;7.82;;;5.32;;
34896;SDS011;43407;51.828;-2.298;2023-03-01T08:46:31;8.93;;;4.47;;
34896;SDS011;43407;51.828;-2.298;2023-03-01T08:48:58;5.95;;;4.43;;
34896;SDS011;43407;51.828;-2.298;2023-03-01T08:51:24;5.15;;;4.22;;
34896;SDS011;43407;51.828;-2.298;2023-03-01T08:53:50;5.78;;;4.43;;
34896;SDS011;43407;51.828;-2.298;2023-03-01T08:56:16;6.40;;;4.72;;
34896;SDS011;43407;51.828;-2.298;2023-03-01T08:58:43;6.47;;;4.38;;
34896;SDS011;43407;51.828;-2.298;2023-03-01T09:01:10;5.10;;;4.53;;
34896;SDS011;43407;51.828;-2.298;2023-03-01T09:03:37;6.32;;;5.00;;
34896;SDS011;43407;51.828;-2.298;2023-03-01T09:06:03;7.78;;;5.25;;
34896;SDS011;43407;51.828;-2.298;2023-03-01T09:08:30;9.80;;;5.30;;
34896;SDS011;43407;51.828;-2.298;2023-03-01T09:10:55;5.72;;;4.95;;
34896;SDS011;43407;51.828;-2.298;2023-03-01T09:13:21;5.65;;;5.05;;
34896;SDS011;43407;51.828;-2.298;2023-03-01T09:15:49;5.35;;;4.82;;
34896;SDS011;43407;51.828;-2.298;2023-03-01T09:18:15;6.10;;;4.68;;
34896;SDS011;43407;51.828;-2.298;2023-03-01T09:20:42;4.88;;;4.43;;
34896;SDS011;43407;51.828;-2.298;2023-03-01T09:23:08;5.78;;;4.68;;
34896;SDS011;43407;51.828;-2.298;2023-03-01T09:25:33;5.00;;;4.50;;
34896;SDS011;43407;51.828;-2.298;2023-03-01T09:27:59;5.63;;;4.88;;
34896;SDS011;43407;51.828;-2.298;2023-03-01T09:30:25;4.93;;;4.43;;
34896;SDS011;43407;51.828;-2.298;2023-03-01T09:32:50;4.63;;;4.20;;
34896;SDS011;43407;51.828;-2.298;2023-03-01T09:35:16;5.05;;;4.45;;
34896;SDS011;43407;51.828;-2.298;2023-03-01T09:37:41;6.00;;;4.05;;
34896;SDS011;43407;51.828;-2.298;2023-03-01T09:40:14;5.18;;;4.03;;
34896;SDS011;43407;51.828;-2.298;2023-03-01T09:43:15;3.60;;;3.20;;
34896;SDS011;43407;51.828;-2.298;2023-03-01T09:45:40;3.17;;;2.85;;
34896;SDS011;43407;51.828;-2.298;2023-03-01T09:48:10;4.45;;;2.75;;
34896;SDS011;43407;51.828;-2.298;2023-03-01T09:50:39;3.63;;;2.85;;
34896;SDS011;43407;51.828;-2.298;2023-03-01T09:53:07;3.10;;;2.67;;
34896;SDS011;43407;51.828;-2.298;2023-03-01T09:55:43;4.88;;;2.90;;
34896;SDS011;43407;51.828;-2.298;2023-03-01T10:01:30;3.85;;;2.92;;
34896;SDS011;43407;51.828;-2.298;2023-03-01T10:04:02;6.10;;;2.47;;
34896;SDS011;43407;51.828;-2.298;2023-03-01T10:06:34;3.85;;;2.90;;
34896;SDS011;43407;51.828;-2.298;2023-03-01T10:09:05;4.78;;;2.42;;
34896;SDS011;43407;51.828;-2.298;2023-03-01T10:11:37;3.20;;;2.25;;
34896;SDS011;43407;51.828;-2.298;2023-03-01T10:19:00;4.55;;;2.30;;
34896;SDS011;43407;51.828;-2.298;2023-03-01T10:21:27;4.55;;;2.28;;
34896;SDS011;43407;51.828;-2.298;2023-03-01T10:23:56;2.55;;;2.10;;
34896;SDS011;43407;51.828;-2.298;2023-03-01T10:29:14;5.68;;;3.55;;
34896;SDS011;43407;51.828;-2.298;2023-03-01T10:31:42;6.00;;;2.78;;
34896;SDS011;43407;51.828;-2.298;2023-03-01T10:36:56;3.20;;;2.90;;
34896;SDS011;43407;51.828;-2.298;2023-03-01T10:44:55;4.25;;;3.42;;
34896;SDS011;43407;51.828;-2.298;2023-03-01T10:47:22;4.00;;;3.50;;
34896;SDS011;43407;51.828;-2.298;2023-03-01T10:50:17;4.55;;;4.07;;
34896;SDS011;43407;51.828;-2.298;2023-03-01T10:52:59;4.82;;;4.40;;
34896;SDS011;43407;51.828;-2.298;2023-03-01T10:55:37;7.13;;;4.38;;
34896;SDS011;43407;51.828;-2.298;2023-03-01T11:03:18;5.00;;;4.60;;
34896;SDS011;43407;51.828;-2.298;2023-03-01T11:06:08;5.05;;;4.25;;
34896;SDS011;43407;51.828;-2.298;2023-03-01T11:08:42;4.45;;;4.05;;
34896;SDS011;43407;51.828;-2.298;2023-03-01T11:11:14;5.25;;;4.32;;
34896;SDS011;43407;51.828;-2.298;2023-03-01T11:13:57;4.65;;;4.25;;
34896;SDS011;43407;51.828;-2.298;2023-03-01T11:19:18;4.80;;;4.40;;
34896;SDS011;43407;51.828;-2.298;2023-03-01T11:21:47;5.00;;;4.50;;
34896;SDS011;43407;51.828;-2.298;2023-03-01T11:25:01;5.35;;;4.85;;
34896;SDS011;43407;51.828;-2.298;2023-03-01T11:27:24;4.95;;;4.43;;
34896;SDS011;43407;51.828;-2.298;2023-03-01T11:29:55;4.82;;;4.10;;
34896;SDS011;43407;51.828;-2.298;2023-03-01T11:32:25;5.15;;;4.28;;
34896;SDS011;43407;51.828;-2.298;2023-03-01T11:37:41;5.13;;;4.63;;
34896;SDS011;43407;51.828;-2.298;2023-03-01T11:40:15;6.35;;;4.43;;
34896;SDS011;43407;51.828;-2.298;2023-03-01T11:42:46;5.43;;;4.07;;
34896;SDS011;43407;51.828;-2.298;2023-03-01T11:45:13;4.78;;;4.07;;
34896;SDS011;43407;51.828;-2.298;2023-03-01T11:48:03;5.63;;;3.80;;
34896;SDS011;43407;51.828;-2.298;2023-03-01T11:51:02;4.10;;;3.70;;
34896;SDS011;43407;51.828;-2.298;2023-03-01T11:53:53;5.55;;;3.55;;
34896;SDS011;43407;51.828;-2.298;2023-03-01T12:17:43;4.40;;;3.80;;
34896;SDS011;43407;51.828;-2.298;2023-03-01T12:39:53;5.38;;;3.53;;
34896;SDS011;43407;51.828;-2.298;2023-03-01T12:45:31;6.03;;;3.50;;
34896;SDS011;43407;51.828;-2.298;2023-03-01T12:50:47;4.45;;;4.05;;
34896;SDS011;43407;51.828;-2.298;2023-03-01T12:53:31;6.38;;;3.65;;
34896;SDS011;43407;51.828;-2.298;2023-03-01T12:56:09;4.32;;;3.75;;
34896;SDS011;43407;51.828;-2.298;2023-03-01T13:01:40;4.03;;;3.40;;
34896;SDS011;43407;51.828;-2.298;2023-03-01T13:07:30;6.25;;;3.88;;
34896;SDS011;43407;51.828;-2.298;2023-03-01T13:09:55;4.07;;;3.47;;
34896;SDS011;43407;51.828;-2.298;2023-03-01T13:17:52;5.30;;;3.75;;
34896;SDS011;43407;51.828;-2.298;2023-03-01T13:20:20;3.50;;;3.20;;
34896;SDS011;43407;51.828;-2.298;2023-03-01T13:22:47;2.95;;;2.60;;
34896;SDS011;43407;51.828;-2.298;2023-03-01T13:25:14;3.30;;;2.45;;
34896;SDS011;43407;51.828;-2.298;2023-03-01T13:27:45;3.05;;;2.00;;
34896;SDS011;43407;51.828;-2.298;2023-03-01T13:35:52;3.08;;;2.78;;
34896;SDS011;43407;51.828;-2.298;2023-03-01T13:41:16;3.45;;;2.80;;
34896;SDS011;43407;51.828;-2.298;2023-03-01T13:46:22;3.08;;;2.63;;
34896;SDS011;43407;51.828;-2.298;2023-03-01T13:48:53;3.20;;;2.90;;
34896;SDS011;43407;51.828;-2.298;2023-03-01T13:51:23;3.33;;;2.67;;
34896;SDS011;43407;51.828;-2.298;2023-03-01T13:53:50;3.22;;;2.80;;
34896;SDS011;43407;51.828;-2.298;2023-03-01T13:56:21;3.47;;;2.40;;
34896;SDS011;43407;51.828;-2.298;2023-03-01T13:59:01;3.25;;;2.38;;
34896;SDS011;43407;51.828;-2.298;2023-03-01T14:01:30;2.50;;;2.30;;
34896;SDS011;43407;51.828;-2.298;2023-03-01T14:04:00;2.72;;;2.50;;
34896;SDS011;43407;51.828;-2.298;2023-03-01T14:06:26;3.75;;;2.80;;
34896;SDS011;43407;51.828;-2.298;2023-03-01T14:09:05;2.85;;;2.55;;
34896;SDS011;43407;51.828;-2.298;2023-03-01T14:19:16;4.80;;;3.30;;
34896;SDS011;43407;51.828;-2.298;2023-03-01T14:21:45;5.20;;;3.28;;
34896;SDS011;43407;51.828;-2.298;2023-03-01T14:24:18;5.25;;;3.67;;
34896;SDS011;43407;51.828;-2.298;2023-03-01T14:26:46;4.85;;;3.58;;
34896;SDS011;43407;51.828;-2.298;2023-03-01T14:29:33;3.88;;;3.30;;
34896;SDS011;43407;51.828;-2.298;2023-03-01T14:34:45;4.82;;;3.20;;
34896;SDS011;43407;51.828;-2.298;2023-03-01T14:37:31;4.53;;;3.63;;
34896;SDS011;43407;51.828;-2.298;2023-03-01T14:39:58;4.78;;;3.45;;
34896;SDS011;43407;51.828;-2.298;2023-03-01T14:42:26;6.68;;;3.63;;
34896;SDS011;43407;51.828;-2.298;2023-03-01T14:44:54;3.67;;;3.00;;
34896;SDS011;43407;51.828;-2.298;2023-03-01T14:50:01;3.40;;;2.88;;
34896;SDS011;43407;51.828;-2.298;2023-03-01T14:55:07;3.95;;;2.97;;
34896;SDS011;43407;51.828;-2.298;2023-03-01T14:57:45;3.55;;;2.88;;
34896;SDS011;43407;51.828;-2.298;2023-03-01T15:00:16;3.83;;;2.83;;
34896;SDS011;43407;51.828;-2.298;2023-03-01T15:02:44;4.57;;;3.03;;
34896;SDS011;43407;51.828;-2.298;2023-03-01T15:05:13;5.47;;;3.13;;
34896;SDS011;43407;51.828;-2.298;2023-03-01T15:07:39;3.55;;;2.90;;
34896;SDS011;43407;51.828;-2.298;2023-03-01T15:10:07;4.30;;;3.13;;
34896;SDS011;43407;51.828;-2.298;2023-03-01T15:12:42;5.88;;;3.30;;
34896;SDS011;43407;51.828;-2.298;2023-03-01T15:15:53;5.80;;;3.63;;
34896;SDS011;43407;51.828;-2.298;2023-03-01T15:17:55;4.80;;;3.70;;
34896;SDS011;43407;51.828;-2.298;2023-03-01T15:20:24;4.03;;;3.08;;
34896;SDS011;43407;51.828;-2.298;2023-03-01T15:22:51;5.47;;;3.05;;
34896;SDS011;43407;51.828;-2.298;2023-03-01T15:25:27;3.67;;;2.80;;
34896;SDS011;43407;51.828;-2.298;2023-03-01T15:27:54;5.05;;;3.10;;
34896;SDS011;43407;51.828;-2.298;2023-03-01T15:30:32;5.60;;;2.60;;
34896;SDS011;43407;51.828;-2.298;2023-03-01T15:36:03;7.38;;;2.78;;
34896;SDS011;43407;51.828;-2.298;2023-03-01T15:43:48;4.10;;;2.10;;
34896;SDS011;43407;51.828;-2.298;2023-03-01T15:46:18;4.10;;;2.67;;
34896;SDS011;43407;51.828;-2.298;2023-03-01T15:48:49;4.13;;;2.10;;
34896;SDS011;43407;51.828;-2.298;2023-03-01T15:51:17;5.05;;;2.70;;
34896;SDS011;43407;51.828;-2.298;2023-03-01T15:53:49;4.20;;;2.45;;
34896;SDS011;43407;51.828;-2.298;2023-03-01T15:56:15;3.88;;;2.50;;
34896;SDS011;43407;51.828;-2.298;2023-03-01T15:58:41;3.35;;;2.30;;
34896;SDS011;43407;51.828;-2.298;2023-03-01T16:01:13;4.85;;;2.63;;
34896;SDS011;43407;51.828;-2.298;2023-03-01T16:03:40;4.53;;;3.15;;
34896;SDS011;43407;51.828;-2.298;2023-03-01T16:06:05;3.22;;;2.90;;
34896;SDS011;43407;51.828;-2.298;2023-03-01T16:08:31;5.90;;;2.53;;
34896;SDS011;43407;51.828;-2.298;2023-03-01T16:10:57;6.22;;;2.72;;
34896;SDS011;43407;51.828;-2.298;2023-03-01T16:13:23;6.22;;;2.92;;
34896;SDS011;43407;51.828;-2.298;2023-03-01T16:15:50;5.18;;;3.03;;
34896;SDS011;43407;51.828;-2.298;2023-03-01T16:18:16;5.07;;;3.05;;
34896;SDS011;43407;51.828;-2.298;2023-03-01T16:20:42;6.68;;;3.22;;
34896;SDS011;43407;51.828;-2.298;2023-03-01T16:23:08;6.60;;;3.75;;
34896;SDS011;43407;51.828;-2.298;2023-03-01T16:25:36;3.63;;;3.20;;
34896;SDS011;43407;51.828;-2.298;2023-03-01T16:28:02;6.07;;;3.67;;
34896;SDS011;43407;51.828;-2.298;2023-03-01T16:30:33;6.25;;;3.30;;
34896;SDS011;43407;51.828;-2.298;2023-03-01T16:33:00;5.47;;;3.45;;
34896;SDS011;43407;51.828;-2.298;2023-03-01T16:35:26;5.72;;;3.40;;
34896;SDS011;43407;51.828;-2.298;2023-03-01T16:37:51;5.32;;;3.35;;
34896;SDS011;43407;51.828;-2.298;2023-03-01T16:40:20;3.25;;;2.70;;
34896;SDS011;43407;51.828;-2.298;2023-03-01T16:42:51;2.92;;;2.72;;
34896;SDS011;43407;51.828;-2.298;2023-03-01T16:45:18;4.55;;;2.70;;
34896;SDS011;43407;51.828;-2.298;2023-03-01T16:47:44;3.70;;;2.65;;
34896;SDS011;43407;51.828;-2.298;2023-03-01T16:50:10;4.25;;;2.90;;
34896;SDS011;43407;51.828;-2.298;2023-03-01T16:52:36;3.85;;;2.80;;
34896;SDS011;43407;51.828;-2.298;2023-03-01T16:55:02;3.75;;;3.15;;
34896;SDS011;43407;51.828;-2.298;2023-03-01T16:57:29;3.55;;;2.40;;
34896;SDS011;43407;51.828;-2.298;2023-03-01T16:59:55;2.58;;;2.38;;
34896;SDS011;43407;51.828;-2.298;2023-03-01T17:02:20;3.65;;;3.00;;